NDF9242 LEBL-LFPG
Flight info
| Callsign | NDF9242 |
|---|---|
| Flight time | 1h 22m |
| Altitude | 30000 |
| Route | OLOXO1S OLOXO DCT OKABI/N0446F340 DCT TOU DCT POI/N0436F300 DCT PEPAX UT182 KEPER KEPER9W |
| Aircraft | A320/M-SDE3FGHIRWY/LB1 |
Departure
| Time | 2026-05-04 18:13 |
|---|---|
| Airport | Josep Tarradellas Barcelona-El Prat Airport (LEBL) |
Arrival
| Time | 2026-05-04 19:36 |
|---|---|
| Airport | Charles de Gaulle International Airport (LFPG) |
| Time | Latitude | Longitude | Altitude | Speed | Heading |
|---|---|---|---|---|---|
| 2026-05-04 17:48 | 41.28972 | 2.07841 | 14 ft | 0 kts | 335° |
| 2026-05-04 18:05 | 41.28955 | 2.07852 | 15 ft | 4 kts | 333° |
| 2026-05-04 18:06 | 41.28910 | 2.07891 | 16 ft | 4 kts | 310° |
| 2026-05-04 18:06 | 41.28899 | 2.07919 | 18 ft | 3 kts | 253° |
| 2026-05-04 18:06 | 41.28900 | 2.07923 | 18 ft | 0 kts | 246° |
| 2026-05-04 18:08 | 41.28900 | 2.07921 | 15 ft | 1 kts | 246° |
| 2026-05-04 18:09 | 41.28865 | 2.07857 | 6 ft | 8 kts | 206° |
| 2026-05-04 18:09 | 41.28713 | 2.07932 | 16 ft | 16 kts | 155° |
| 2026-05-04 18:10 | 41.28630 | 2.07985 | 17 ft | 10 kts | 143° |
| 2026-05-04 18:10 | 41.28638 | 2.08077 | 19 ft | 12 kts | 65° |
| 2026-05-04 18:10 | 41.28674 | 2.08178 | 19 ft | 11 kts | 65° |
| 2026-05-04 18:10 | 41.28702 | 2.08263 | 22 ft | 9 kts | 66° |
| 2026-05-04 18:11 | 41.28723 | 2.08325 | 22 ft | 8 kts | 65° |
| 2026-05-04 18:11 | 41.28752 | 2.08407 | 23 ft | 9 kts | 65° |
| 2026-05-04 18:11 | 41.28785 | 2.08479 | 22 ft | 9 kts | 43° |
| 2026-05-04 18:11 | 41.28835 | 2.08510 | 22 ft | 0 kts | 18° |
| 2026-05-04 18:12 | 41.28853 | 2.08518 | 21 ft | 22 kts | 18° |
| 2026-05-04 18:12 | 41.29266 | 2.08709 | 15 ft | 99 kts | 19° |
| 2026-05-04 18:13 | 41.30113 | 2.09092 | 18 ft | 156 kts | 19° |
| 2026-05-04 18:13 | 41.31203 | 2.09588 | 462 ft | 165 kts | 20° |
| 2026-05-04 18:13 | 41.32603 | 2.11810 | 1706 ft | 164 kts | 81° |
| 2026-05-04 18:14 | 41.32844 | 2.13357 | 2038 ft | 181 kts | 80° |
| 2026-05-04 18:14 | 41.33112 | 2.15092 | 2226 ft | 202 kts | 79° |
| 2026-05-04 18:14 | 41.33410 | 2.17020 | 2425 ft | 220 kts | 80° |
| 2026-05-04 18:15 | 41.34798 | 2.20670 | 3201 ft | 229 kts | 48° |
| 2026-05-04 18:15 | 41.36954 | 2.23846 | 4028 ft | 234 kts | 48° |
| 2026-05-04 18:15 | 41.38049 | 2.25471 | 4457 ft | 237 kts | 48° |
| 2026-05-04 18:16 | 41.39170 | 2.27135 | 4907 ft | 239 kts | 47° |
| 2026-05-04 18:16 | 41.40269 | 2.28771 | 5358 ft | 241 kts | 47° |
| 2026-05-04 18:16 | 41.41389 | 2.30438 | 5787 ft | 242 kts | 47° |
| 2026-05-04 18:17 | 41.44126 | 2.33007 | 6438 ft | 248 kts | 15° |
| 2026-05-04 18:17 | 41.45856 | 2.33510 | 6557 ft | 264 kts | 7° |
| 2026-05-04 18:17 | 41.49721 | 2.34422 | 7064 ft | 292 kts | 7° |
| 2026-05-04 18:18 | 41.51734 | 2.34906 | 7520 ft | 295 kts | 8° |
| 2026-05-04 18:18 | 41.53768 | 2.35397 | 7995 ft | 298 kts | 7° |
| 2026-05-04 18:18 | 41.55818 | 2.35892 | 8467 ft | 301 kts | 7° |
| 2026-05-04 18:18 | 41.57887 | 2.36395 | 8940 ft | 304 kts | 7° |
| 2026-05-04 18:19 | 41.62128 | 2.37431 | 10260 ft | 324 kts | 7° |
| 2026-05-04 18:19 | 41.64428 | 2.37935 | 10501 ft | 346 kts | 1° |
| 2026-05-04 18:19 | 41.66843 | 2.37575 | 10924 ft | 353 kts | 338° |
| 2026-05-04 18:20 | 41.68997 | 2.36060 | 11581 ft | 350 kts | 316° |
| 2026-05-04 18:20 | 41.70581 | 2.33638 | 12270 ft | 345 kts | 296° |
| 2026-05-04 18:20 | 41.71404 | 2.30667 | 12974 ft | 341 kts | 276° |
| 2026-05-04 18:20 | 41.71715 | 2.27513 | 13711 ft | 343 kts | 273° |
| 2026-05-04 18:21 | 41.72006 | 2.24328 | 14371 ft | 347 kts | 273° |
| 2026-05-04 18:21 | 41.72296 | 2.21117 | 15074 ft | 349 kts | 273° |
| 2026-05-04 18:21 | 41.72589 | 2.17874 | 15717 ft | 352 kts | 273° |
| 2026-05-04 18:21 | 41.72884 | 2.14601 | 16354 ft | 356 kts | 273° |
| 2026-05-04 18:22 | 41.73186 | 2.11300 | 16962 ft | 359 kts | 273° |
| 2026-05-04 18:22 | 41.73491 | 2.07964 | 17584 ft | 363 kts | 273° |
| 2026-05-04 18:22 | 41.73797 | 2.04594 | 18187 ft | 366 kts | 273° |
| 2026-05-04 18:22 | 41.74105 | 2.01195 | 18700 ft | 369 kts | 273° |
| 2026-05-04 18:23 | 41.74412 | 1.97784 | 18886 ft | 370 kts | 273° |
| 2026-05-04 18:23 | 41.74615 | 1.95517 | 18926 ft | 370 kts | 273° |
| 2026-05-04 18:23 | 41.74922 | 1.92099 | 18937 ft | 369 kts | 273° |
| 2026-05-04 18:23 | 41.75424 | 1.87526 | 19260 ft | 376 kts | 281° |
| 2026-05-04 18:24 | 41.75995 | 1.85317 | 19623 ft | 382 kts | 290° |
| 2026-05-04 18:24 | 41.77388 | 1.82243 | 20156 ft | 392 kts | 305° |
| 2026-05-04 18:24 | 41.79388 | 1.79705 | 20677 ft | 403 kts | 320° |
| 2026-05-04 18:24 | 41.81893 | 1.77932 | 21175 ft | 414 kts | 336° |
| 2026-05-04 18:25 | 41.84649 | 1.76738 | 21672 ft | 418 kts | 339° |
| 2026-05-04 18:25 | 41.87436 | 1.75557 | 22154 ft | 421 kts | 339° |
| 2026-05-04 18:25 | 41.90235 | 1.74369 | 22638 ft | 424 kts | 338° |
| 2026-05-04 18:25 | 41.93060 | 1.73164 | 23117 ft | 427 kts | 338° |
| 2026-05-04 18:26 | 41.95895 | 1.71947 | 23584 ft | 430 kts | 338° |
| 2026-05-04 18:26 | 41.98752 | 1.70714 | 23973 ft | 432 kts | 338° |
| 2026-05-04 18:26 | 42.01626 | 1.69472 | 24359 ft | 435 kts | 338° |
| 2026-05-04 18:26 | 42.04514 | 1.68222 | 24744 ft | 438 kts | 338° |
| 2026-05-04 18:27 | 42.07424 | 1.66961 | 25101 ft | 440 kts | 338° |
| 2026-05-04 18:27 | 42.10353 | 1.65691 | 25474 ft | 443 kts | 338° |
| 2026-05-04 18:27 | 42.13296 | 1.64415 | 25832 ft | 446 kts | 339° |
| 2026-05-04 18:27 | 42.16257 | 1.63132 | 26192 ft | 448 kts | 339° |
| 2026-05-04 18:28 | 42.19235 | 1.61840 | 26547 ft | 451 kts | 339° |
| 2026-05-04 18:28 | 42.22229 | 1.60542 | 26910 ft | 454 kts | 339° |
| 2026-05-04 18:28 | 42.25245 | 1.59234 | 27252 ft | 457 kts | 339° |
| 2026-05-04 18:28 | 42.28282 | 1.57916 | 27602 ft | 459 kts | 339° |
| 2026-05-04 18:29 | 42.31332 | 1.56592 | 27934 ft | 462 kts | 339° |
| 2026-05-04 18:29 | 42.34404 | 1.55255 | 28252 ft | 465 kts | 339° |
| 2026-05-04 18:29 | 42.37491 | 1.53908 | 28552 ft | 468 kts | 339° |
| 2026-05-04 18:29 | 42.40598 | 1.52552 | 28857 ft | 470 kts | 339° |
| 2026-05-04 18:30 | 42.47051 | 1.50695 | 29427 ft | 480 kts | 351° |
| 2026-05-04 18:30 | 42.50381 | 1.50171 | 29717 ft | 483 kts | 351° |
| 2026-05-04 18:30 | 42.53731 | 1.49642 | 29930 ft | 485 kts | 351° |
| 2026-05-04 18:31 | 42.57047 | 1.49115 | 29958 ft | 475 kts | 351° |
| 2026-05-04 18:31 | 42.63566 | 1.48067 | 29962 ft | 470 kts | 351° |
| 2026-05-04 18:32 | 42.70063 | 1.47005 | 29959 ft | 470 kts | 351° |
| 2026-05-04 18:32 | 42.76559 | 1.45959 | 29965 ft | 470 kts | 351° |
| 2026-05-04 18:33 | 42.83062 | 1.44916 | 29972 ft | 470 kts | 351° |
| 2026-05-04 18:33 | 42.89552 | 1.43858 | 29970 ft | 470 kts | 351° |
| 2026-05-04 18:34 | 42.96053 | 1.42807 | 29973 ft | 470 kts | 351° |
| 2026-05-04 18:34 | 43.02550 | 1.41763 | 29972 ft | 471 kts | 351° |
| 2026-05-04 18:35 | 43.09058 | 1.40699 | 29957 ft | 471 kts | 351° |
| 2026-05-04 18:35 | 43.15570 | 1.39636 | 29969 ft | 472 kts | 351° |
| 2026-05-04 18:36 | 43.22103 | 1.38564 | 29967 ft | 473 kts | 351° |
| 2026-05-04 18:36 | 43.28649 | 1.37494 | 29964 ft | 474 kts | 351° |
| 2026-05-04 18:37 | 43.35199 | 1.36418 | 29950 ft | 473 kts | 352° |
| 2026-05-04 18:37 | 43.41723 | 1.35349 | 29940 ft | 472 kts | 352° |
| 2026-05-04 18:38 | 43.48257 | 1.34272 | 29949 ft | 474 kts | 352° |
| 2026-05-04 18:38 | 43.54815 | 1.33183 | 29957 ft | 475 kts | 352° |
| 2026-05-04 18:39 | 43.61389 | 1.32098 | 29957 ft | 476 kts | 352° |
| 2026-05-04 18:39 | 43.67961 | 1.30966 | 29960 ft | 476 kts | 348° |
| 2026-05-04 18:40 | 43.74390 | 1.28880 | 29960 ft | 475 kts | 345° |
| 2026-05-04 18:40 | 43.80823 | 1.26738 | 29956 ft | 475 kts | 345° |
| 2026-05-04 18:41 | 43.87260 | 1.24606 | 29939 ft | 476 kts | 345° |
| 2026-05-04 18:41 | 43.93654 | 1.22491 | 29938 ft | 476 kts | 345° |
| 2026-05-04 18:42 | 44.00091 | 1.20335 | 29925 ft | 476 kts | 345° |
| 2026-05-04 18:42 | 44.06532 | 1.18176 | 29928 ft | 476 kts | 345° |
| 2026-05-04 18:43 | 44.12978 | 1.16010 | 29926 ft | 477 kts | 345° |
| 2026-05-04 18:43 | 44.19435 | 1.13841 | 29932 ft | 477 kts | 345° |
| 2026-05-04 18:44 | 44.25886 | 1.11664 | 29929 ft | 477 kts | 345° |
| 2026-05-04 18:44 | 44.32346 | 1.09470 | 29928 ft | 477 kts | 345° |
| 2026-05-04 18:45 | 44.38804 | 1.07278 | 29928 ft | 478 kts | 345° |
| 2026-05-04 18:45 | 44.45263 | 1.05084 | 29926 ft | 478 kts | 345° |
| 2026-05-04 18:46 | 44.51727 | 1.02888 | 29926 ft | 478 kts | 345° |
| 2026-05-04 18:46 | 44.58200 | 1.00682 | 29923 ft | 478 kts | 345° |
| 2026-05-04 18:47 | 44.64680 | 0.98457 | 29918 ft | 479 kts | 345° |
| 2026-05-04 18:47 | 44.71158 | 0.96230 | 29916 ft | 479 kts | 345° |
| 2026-05-04 18:48 | 44.77648 | 0.93994 | 29921 ft | 480 kts | 345° |
| 2026-05-04 18:48 | 44.84136 | 0.91764 | 29917 ft | 480 kts | 345° |
| 2026-05-04 18:49 | 44.90636 | 0.89524 | 29917 ft | 481 kts | 345° |
| 2026-05-04 18:49 | 44.97142 | 0.87271 | 29900 ft | 482 kts | 345° |
| 2026-05-04 18:50 | 45.03658 | 0.85023 | 29897 ft | 482 kts | 345° |
| 2026-05-04 18:50 | 45.10142 | 0.82772 | 29902 ft | 483 kts | 345° |
| 2026-05-04 18:51 | 45.16662 | 0.80490 | 29904 ft | 483 kts | 345° |
| 2026-05-04 18:51 | 45.23185 | 0.78200 | 29907 ft | 483 kts | 345° |
| 2026-05-04 18:52 | 45.29703 | 0.75925 | 29912 ft | 482 kts | 345° |
| 2026-05-04 18:52 | 45.36229 | 0.73638 | 29909 ft | 482 kts | 345° |
| 2026-05-04 18:53 | 45.42740 | 0.71345 | 29912 ft | 482 kts | 345° |
| 2026-05-04 18:53 | 45.49246 | 0.69051 | 29912 ft | 481 kts | 345° |
| 2026-05-04 18:54 | 45.55747 | 0.66756 | 29918 ft | 481 kts | 345° |
| 2026-05-04 18:54 | 45.62237 | 0.64456 | 29917 ft | 481 kts | 345° |
| 2026-05-04 18:55 | 45.68736 | 0.62141 | 29919 ft | 480 kts | 345° |
| 2026-05-04 18:55 | 45.78433 | 0.58682 | 29920 ft | 480 kts | 345° |
| 2026-05-04 18:56 | 45.84927 | 0.56361 | 29922 ft | 481 kts | 345° |
| 2026-05-04 18:56 | 45.91420 | 0.54038 | 29918 ft | 481 kts | 345° |
| 2026-05-04 18:57 | 45.97921 | 0.51701 | 29918 ft | 481 kts | 345° |
| 2026-05-04 18:57 | 46.04418 | 0.49362 | 29918 ft | 482 kts | 345° |
| 2026-05-04 18:58 | 46.10919 | 0.47012 | 29920 ft | 482 kts | 345° |
| 2026-05-04 18:58 | 46.17435 | 0.44651 | 29919 ft | 483 kts | 345° |
| 2026-05-04 18:59 | 46.23951 | 0.42302 | 29918 ft | 483 kts | 345° |
| 2026-05-04 18:59 | 46.30474 | 0.39928 | 29930 ft | 483 kts | 344° |
| 2026-05-04 19:00 | 46.37017 | 0.37652 | 29924 ft | 484 kts | 351° |
| 2026-05-04 19:00 | 46.40373 | 0.37492 | 29929 ft | 483 kts | 5° |
| 2026-05-04 19:00 | 46.43688 | 0.37838 | 29927 ft | 483 kts | 5° |
| 2026-05-04 19:01 | 46.50397 | 0.38593 | 29925 ft | 483 kts | 5° |
| 2026-05-04 19:01 | 46.57100 | 0.39379 | 29930 ft | 483 kts | 5° |
| 2026-05-04 19:02 | 46.63806 | 0.40158 | 29926 ft | 483 kts | 5° |
| 2026-05-04 19:02 | 46.70503 | 0.40919 | 29929 ft | 482 kts | 5° |
| 2026-05-04 19:03 | 46.77189 | 0.41672 | 29931 ft | 481 kts | 5° |
| 2026-05-04 19:03 | 46.83871 | 0.42452 | 29928 ft | 481 kts | 5° |
| 2026-05-04 19:04 | 46.90541 | 0.43224 | 29923 ft | 480 kts | 5° |
| 2026-05-04 19:04 | 46.97198 | 0.43988 | 29928 ft | 480 kts | 5° |
| 2026-05-04 19:05 | 47.02773 | 0.44629 | 29932 ft | 479 kts | 5° |
| 2026-05-04 19:05 | 47.09426 | 0.44870 | 29928 ft | 478 kts | 354° |
| 2026-05-04 19:06 | 47.15961 | 0.43376 | 29933 ft | 477 kts | 349° |
| 2026-05-04 19:06 | 47.22513 | 0.41753 | 29933 ft | 477 kts | 349° |
| 2026-05-04 19:07 | 47.29061 | 0.40137 | 29926 ft | 476 kts | 350° |
| 2026-05-04 19:07 | 47.35595 | 0.38551 | 29930 ft | 476 kts | 350° |
| 2026-05-04 19:08 | 47.42124 | 0.36971 | 29934 ft | 475 kts | 351° |
| 2026-05-04 19:08 | 47.45421 | 0.36774 | 29930 ft | 474 kts | 6° |
| 2026-05-04 19:08 | 47.48625 | 0.37789 | 29930 ft | 470 kts | 22° |
| 2026-05-04 19:09 | 47.51525 | 0.39929 | 29925 ft | 465 kts | 34° |
| 2026-05-04 19:09 | 47.54281 | 0.42437 | 29923 ft | 465 kts | 34° |
| 2026-05-04 19:09 | 47.59785 | 0.47478 | 29921 ft | 465 kts | 34° |
| 2026-05-04 19:10 | 47.62543 | 0.50004 | 29711 ft | 466 kts | 34° |
| 2026-05-04 19:10 | 47.65300 | 0.52524 | 29424 ft | 466 kts | 34° |
| 2026-05-04 19:10 | 47.68051 | 0.55039 | 29132 ft | 464 kts | 34° |
| 2026-05-04 19:10 | 47.70783 | 0.57533 | 28566 ft | 460 kts | 34° |
| 2026-05-04 19:11 | 47.73498 | 0.60013 | 27936 ft | 456 kts | 33° |
| 2026-05-04 19:11 | 47.76188 | 0.62477 | 27309 ft | 452 kts | 33° |
| 2026-05-04 19:11 | 47.78850 | 0.64925 | 26682 ft | 448 kts | 33° |
| 2026-05-04 19:11 | 47.81495 | 0.67363 | 26096 ft | 445 kts | 33° |
| 2026-05-04 19:12 | 47.84117 | 0.69782 | 25499 ft | 442 kts | 33° |
| 2026-05-04 19:12 | 47.89299 | 0.74562 | 24355 ft | 434 kts | 33° |
| 2026-05-04 19:12 | 47.91857 | 0.76926 | 23812 ft | 429 kts | 33° |
| 2026-05-04 19:13 | 47.94378 | 0.79263 | 23234 ft | 425 kts | 33° |
| 2026-05-04 19:13 | 47.96876 | 0.81584 | 22718 ft | 419 kts | 33° |
| 2026-05-04 19:13 | 47.99331 | 0.83867 | 22220 ft | 413 kts | 33° |
| 2026-05-04 19:13 | 48.01751 | 0.86112 | 21734 ft | 407 kts | 32° |
| 2026-05-04 19:14 | 48.04141 | 0.88330 | 21255 ft | 402 kts | 32° |
| 2026-05-04 19:14 | 48.06505 | 0.90529 | 20774 ft | 398 kts | 32° |
| 2026-05-04 19:14 | 48.08841 | 0.92705 | 20286 ft | 394 kts | 32° |
| 2026-05-04 19:14 | 48.11157 | 0.94868 | 19797 ft | 391 kts | 32° |
| 2026-05-04 19:15 | 48.13460 | 0.97020 | 19305 ft | 389 kts | 32° |
| 2026-05-04 19:15 | 48.15726 | 0.99136 | 18804 ft | 387 kts | 32° |
| 2026-05-04 19:15 | 48.18005 | 1.01270 | 18312 ft | 386 kts | 32° |
| 2026-05-04 19:15 | 48.20277 | 1.03406 | 17756 ft | 384 kts | 32° |
| 2026-05-04 19:16 | 48.22563 | 1.05554 | 17248 ft | 381 kts | 32° |
| 2026-05-04 19:16 | 48.24804 | 1.07662 | 16741 ft | 379 kts | 32° |
| 2026-05-04 19:16 | 48.27030 | 1.09755 | 16259 ft | 377 kts | 32° |
| 2026-05-04 19:16 | 48.29215 | 1.11811 | 15778 ft | 374 kts | 32° |
| 2026-05-04 19:17 | 48.31417 | 1.13883 | 15291 ft | 372 kts | 32° |
| 2026-05-04 19:17 | 48.33606 | 1.15946 | 14806 ft | 371 kts | 32° |
| 2026-05-04 19:17 | 48.35784 | 1.18002 | 14325 ft | 369 kts | 33° |
| 2026-05-04 19:17 | 48.37948 | 1.20060 | 13845 ft | 367 kts | 33° |
| 2026-05-04 19:18 | 48.40101 | 1.22103 | 13335 ft | 364 kts | 33° |
| 2026-05-04 19:18 | 48.42238 | 1.24125 | 12835 ft | 361 kts | 33° |
| 2026-05-04 19:18 | 48.44352 | 1.26127 | 12360 ft | 357 kts | 33° |
| 2026-05-04 19:18 | 48.46415 | 1.28081 | 12215 ft | 343 kts | 33° |
| 2026-05-04 19:19 | 48.48402 | 1.29957 | 12070 ft | 331 kts | 33° |
| 2026-05-04 19:19 | 48.50273 | 1.31873 | 11950 ft | 319 kts | 41° |
| 2026-05-04 19:19 | 48.51751 | 1.34271 | 11806 ft | 307 kts | 56° |
| 2026-05-04 19:19 | 48.52799 | 1.37025 | 11602 ft | 300 kts | 64° |
| 2026-05-04 19:20 | 48.53743 | 1.39804 | 11521 ft | 297 kts | 64° |
| 2026-05-04 19:20 | 48.54686 | 1.42570 | 11379 ft | 296 kts | 64° |
| 2026-05-04 19:20 | 48.55626 | 1.45326 | 11227 ft | 295 kts | 64° |
| 2026-05-04 19:20 | 48.56598 | 1.48044 | 11066 ft | 294 kts | 57° |
| 2026-05-04 19:21 | 48.57921 | 1.50387 | 10955 ft | 294 kts | 42° |
| 2026-05-04 19:21 | 48.59582 | 1.52153 | 10645 ft | 292 kts | 28° |
| 2026-05-04 19:21 | 48.61403 | 1.53498 | 10301 ft | 291 kts | 26° |
| 2026-05-04 19:21 | 48.63217 | 1.54827 | 9970 ft | 289 kts | 26° |
| 2026-05-04 19:22 | 48.65018 | 1.56148 | 9629 ft | 287 kts | 26° |
| 2026-05-04 19:22 | 48.66807 | 1.57464 | 9267 ft | 285 kts | 27° |
| 2026-05-04 19:22 | 48.68581 | 1.58770 | 8898 ft | 283 kts | 27° |
| 2026-05-04 19:22 | 48.70348 | 1.60066 | 8536 ft | 281 kts | 27° |
| 2026-05-04 19:23 | 48.72101 | 1.61366 | 8175 ft | 280 kts | 27° |
| 2026-05-04 19:23 | 48.73819 | 1.62734 | 7795 ft | 278 kts | 36° |
| 2026-05-04 19:23 | 48.75191 | 1.64753 | 7424 ft | 275 kts | 50° |
| 2026-05-04 19:23 | 48.76402 | 1.66980 | 7049 ft | 273 kts | 52° |
| 2026-05-04 19:24 | 48.77589 | 1.69213 | 6689 ft | 272 kts | 52° |
| 2026-05-04 19:24 | 48.78771 | 1.71444 | 6326 ft | 270 kts | 52° |
| 2026-05-04 19:24 | 48.79943 | 1.73662 | 5933 ft | 269 kts | 52° |
| 2026-05-04 19:24 | 48.81108 | 1.75874 | 5552 ft | 268 kts | 52° |
| 2026-05-04 19:25 | 48.82266 | 1.78082 | 5169 ft | 266 kts | 52° |
| 2026-05-04 19:25 | 48.83400 | 1.80252 | 5000 ft | 255 kts | 52° |
| 2026-05-04 19:25 | 48.84467 | 1.82296 | 5004 ft | 240 kts | 52° |
| 2026-05-04 19:25 | 48.85481 | 1.84240 | 5011 ft | 232 kts | 52° |
| 2026-05-04 19:26 | 48.86480 | 1.86150 | 5007 ft | 231 kts | 52° |
| 2026-05-04 19:26 | 48.87473 | 1.88056 | 5007 ft | 230 kts | 52° |
| 2026-05-04 19:26 | 48.88468 | 1.89965 | 5006 ft | 230 kts | 52° |
| 2026-05-04 19:26 | 48.89460 | 1.91869 | 5003 ft | 230 kts | 52° |
| 2026-05-04 19:27 | 48.90452 | 1.93778 | 5006 ft | 230 kts | 52° |
| 2026-05-04 19:27 | 48.90787 | 1.94423 | 5010 ft | 230 kts | 52° |
| 2026-05-04 19:27 | 48.91718 | 1.96223 | 5009 ft | 230 kts | 52° |
| 2026-05-04 19:27 | 48.92710 | 1.98136 | 5009 ft | 230 kts | 52° |
| 2026-05-04 19:28 | 48.93702 | 2.00047 | 5011 ft | 230 kts | 52° |
| 2026-05-04 19:28 | 48.94694 | 2.01960 | 5010 ft | 231 kts | 52° |
| 2026-05-04 19:28 | 48.95687 | 2.03875 | 5005 ft | 230 kts | 53° |
| 2026-05-04 19:28 | 48.96413 | 2.06026 | 5006 ft | 230 kts | 76° |
| 2026-05-04 19:29 | 48.96605 | 2.08442 | 5009 ft | 231 kts | 84° |
| 2026-05-04 19:29 | 48.96738 | 2.10853 | 5004 ft | 223 kts | 84° |
| 2026-05-04 19:29 | 48.96867 | 2.13129 | 5002 ft | 209 kts | 84° |
| 2026-05-04 19:29 | 48.96991 | 2.15283 | 5003 ft | 201 kts | 84° |
| 2026-05-04 19:30 | 48.97113 | 2.17393 | 5006 ft | 200 kts | 84° |
| 2026-05-04 19:30 | 48.97233 | 2.19501 | 5010 ft | 199 kts | 84° |
| 2026-05-04 19:30 | 48.97353 | 2.21599 | 4846 ft | 199 kts | 84° |
| 2026-05-04 19:30 | 48.97472 | 2.23699 | 4594 ft | 198 kts | 84° |
| 2026-05-04 19:31 | 48.97589 | 2.25758 | 4328 ft | 197 kts | 84° |
| 2026-05-04 19:31 | 48.97707 | 2.27842 | 4068 ft | 197 kts | 84° |
| 2026-05-04 19:31 | 48.97823 | 2.29912 | 3805 ft | 196 kts | 84° |
| 2026-05-04 19:31 | 48.97939 | 2.31980 | 3543 ft | 196 kts | 84° |
| 2026-05-04 19:32 | 48.98055 | 2.34041 | 3282 ft | 195 kts | 84° |
| 2026-05-04 19:32 | 48.98169 | 2.36093 | 3023 ft | 195 kts | 84° |
| 2026-05-04 19:32 | 48.98283 | 2.38146 | 2764 ft | 194 kts | 84° |
| 2026-05-04 19:32 | 48.98397 | 2.40196 | 2499 ft | 194 kts | 84° |
| 2026-05-04 19:33 | 48.98509 | 2.42225 | 2237 ft | 190 kts | 84° |
| 2026-05-04 19:33 | 48.98617 | 2.44184 | 1987 ft | 178 kts | 84° |
| 2026-05-04 19:33 | 48.98715 | 2.45974 | 1778 ft | 161 kts | 84° |
| 2026-05-04 19:33 | 48.98804 | 2.47600 | 1547 ft | 148 kts | 84° |
| 2026-05-04 19:34 | 48.98887 | 2.49126 | 1354 ft | 142 kts | 84° |
| 2026-05-04 19:34 | 48.98968 | 2.50611 | 1158 ft | 140 kts | 84° |
| 2026-05-04 19:34 | 48.99048 | 2.52082 | 964 ft | 139 kts | 84° |
| 2026-05-04 19:34 | 48.99129 | 2.53552 | 783 ft | 139 kts | 85° |
| 2026-05-04 19:35 | 48.99207 | 2.55016 | 598 ft | 139 kts | 84° |
| 2026-05-04 19:35 | 48.99291 | 2.56480 | 405 ft | 138 kts | 84° |
| 2026-05-04 19:35 | 48.99364 | 2.57852 | 352 ft | 112 kts | 86° |
| 2026-05-04 19:35 | 48.99410 | 2.58770 | 354 ft | 62 kts | 85° |
| 2026-05-04 19:36 | 48.99433 | 2.59204 | 352 ft | 22 kts | 85° |
| 2026-05-04 19:36 | 48.99500 | 2.59342 | 358 ft | 13 kts | 24° |
| 2026-05-04 19:36 | 48.99525 | 2.59416 | 357 ft | 8 kts | 73° |
| 2026-05-04 19:36 | 48.99543 | 2.59499 | 358 ft | 7 kts | 68° |
| 2026-05-04 19:37 | 48.99557 | 2.59540 | 360 ft | 2 kts | 60° |
| 2026-05-04 19:37 | 48.99559 | 2.59547 | 359 ft | 2 kts | 60° |
| 2026-05-04 19:37 | 48.99573 | 2.59593 | 357 ft | 4 kts | 69° |
| 2026-05-04 19:37 | 48.99600 | 2.59663 | 358 ft | 8 kts | 40° |
| 2026-05-04 19:38 | 48.99660 | 2.59686 | 354 ft | 11 kts | 4° |
| 2026-05-04 19:38 | 48.99726 | 2.59685 | 354 ft | 7 kts | 358° |
| 2026-05-04 19:38 | 48.99770 | 2.59679 | 353 ft | 8 kts | 352° |
| 2026-05-04 19:38 | 48.99858 | 2.59659 | 353 ft | 13 kts | 352° |
| 2026-05-04 19:39 | 48.99935 | 2.59661 | 354 ft | 9 kts | 4° |
| 2026-05-04 19:39 | 48.99980 | 2.59665 | 354 ft | 4 kts | 1° |
| 2026-05-04 19:39 | 48.99992 | 2.59658 | 354 ft | 0 kts | 340° |
| 2026-05-04 19:40 | 48.99998 | 2.59655 | 354 ft | 6 kts | 340° |
| 2026-05-04 19:40 | 49.00066 | 2.59639 | 354 ft | 10 kts | 352° |
| 2026-05-04 19:41 | 49.00123 | 2.59628 | 358 ft | 7 kts | 356° |
| 2026-05-04 19:41 | 49.00216 | 2.59623 | 353 ft | 24 kts | 358° |
| 2026-05-04 19:41 | 49.00398 | 2.59599 | 360 ft | 27 kts | 355° |
| 2026-05-04 19:41 | 49.00584 | 2.59577 | 355 ft | 27 kts | 355° |
| 2026-05-04 19:42 | 49.00773 | 2.59556 | 353 ft | 28 kts | 356° |
| 2026-05-04 19:42 | 49.00940 | 2.59533 | 355 ft | 15 kts | 353° |
| 2026-05-04 19:42 | 49.01000 | 2.59427 | 357 ft | 15 kts | 271° |
| 2026-05-04 19:42 | 49.00992 | 2.59263 | 355 ft | 16 kts | 266° |
| 2026-05-04 19:43 | 49.00981 | 2.59080 | 360 ft | 22 kts | 260° |
| 2026-05-04 19:43 | 49.00948 | 2.58840 | 355 ft | 24 kts | 264° |
| 2026-05-04 19:43 | 49.00933 | 2.58575 | 355 ft | 26 kts | 265° |
| 2026-05-04 19:43 | 49.00919 | 2.58311 | 355 ft | 24 kts | 265° |
| 2026-05-04 19:44 | 49.00906 | 2.58075 | 355 ft | 21 kts | 265° |
| 2026-05-04 19:44 | 49.00895 | 2.57859 | 363 ft | 21 kts | 266° |
| 2026-05-04 19:44 | 49.00883 | 2.57633 | 355 ft | 22 kts | 265° |
| 2026-05-04 19:44 | 49.00869 | 2.57390 | 356 ft | 24 kts | 264° |
| 2026-05-04 19:45 | 49.00856 | 2.57128 | 355 ft | 26 kts | 266° |
| 2026-05-04 19:45 | 49.00840 | 2.56850 | 358 ft | 27 kts | 264° |
| 2026-05-04 19:45 | 49.00827 | 2.56605 | 355 ft | 15 kts | 265° |
| 2026-05-04 19:45 | 49.00820 | 2.56504 | 361 ft | 7 kts | 259° |
| 2026-05-04 19:46 | 49.00780 | 2.56451 | 356 ft | 11 kts | 186° |
| 2026-05-04 19:46 | 49.00739 | 2.56456 | 359 ft | 7 kts | 177° |
| 2026-05-04 19:46 | 49.00673 | 2.56463 | 354 ft | 17 kts | 176° |
| 2026-05-04 19:46 | 49.00611 | 2.56364 | 356 ft | 13 kts | 263° |
| 2026-05-04 19:47 | 49.00601 | 2.56242 | 353 ft | 13 kts | 263° |
| 2026-05-04 19:47 | 49.00591 | 2.56187 | 360 ft | 1 kts | 225° |
| 2026-05-04 19:47 | 49.00580 | 2.56175 | 356 ft | 4 kts | 209° |
| 2026-05-04 19:47 | 49.00552 | 2.56161 | 357 ft | 7 kts | 198° |
| 2026-05-04 19:48 | 49.00528 | 2.56150 | 358 ft | 0 kts | 198° |
| 2026-05-04 19:48 | 49.00526 | 2.56149 | 359 ft | 0 kts | 198° |
| 2026-05-04 19:48 | 49.00525 | 2.56148 | 359 ft | 0 kts | 198° |